Time;durP1;ratioP1;P1;durP2;ratioP2;P2;SDS_P1;SDS_P2;PMS_P1;PMS_P2;Temp;Humidity;BMP_temperature;BMP_pressure;BME280_temperature;BME280_humidity;BME280_pressure;Samples;Min_cycle;Max_cycle;Signal;HPM_P1;HPM_P2
2022/01/11 00:00:20;;;;;;;0.98;0.98;;;;;;;22.59;1.66;102597.59;5053964;28;20052;-69
2022/01/11 00:02:46;;;;;;;0.80;0.80;;;;;;;22.52;1.71;102600.34;5054032;28;20025;-67
2022/01/11 00:07:56;;;;;;;1.02;0.98;;;;;;;22.56;1.53;102607.06;5053929;28;20158;-68
2022/01/11 00:10:34;;;;;;;1.00;1.00;;;;;;;22.49;1.67;102600.75;5053736;28;20021;-67
2022/01/11 00:13:00;;;;;;;1.25;1.15;;;;;;;22.48;1.65;102586.31;5053457;28;20029;-68
2022/01/11 00:15:26;;;;;;;1.27;1.17;;;;;;;22.47;1.70;102590.09;5053399;28;20028;-69
2022/01/11 00:17:51;;;;;;;1.20;1.10;;;;;;;22.56;1.77;102592.56;5053355;28;20033;-67
2022/01/11 00:20:19;;;;;;;1.10;1.00;;;;;;;22.50;1.67;102591.53;5053594;28;20049;-68
2022/01/11 00:25:25;;;;;;;1.20;1.10;;;;;;;22.49;1.69;102590.72;5052590;28;20044;-68
2022/01/11 00:27:51;;;;;;;1.17;1.08;;;;;;;22.47;1.78;102597.41;5053563;28;20033;-68
2022/01/11 00:30:16;;;;;;;1.10;1.00;;;;;;;22.45;1.57;102589.47;5053170;28;20395;-68
2022/01/11 00:32:50;;;;;;;0.90;0.90;;;;;;;22.48;1.72;102593.66;5053364;28;20029;-68
2022/01/11 00:35:17;;;;;;;;;;;;;;;22.67;1.83;102597.38;5053926;28;20029;-67
2022/01/11 00:37:45;;;;;;;0.85;0.85;;;;;;;22.59;1.47;102598.44;5053223;28;19909;-68
2022/01/11 00:40:11;;;;;;;1.17;1.08;;;;;;;22.55;1.46;102594.47;5053334;28;20032;-68
2022/01/11 00:42:37;;;;;;;1.00;0.90;;;;;;;22.54;1.66;102587.34;5054088;28;20025;-68
2022/01/11 00:45:06;;;;;;;0.90;0.90;;;;;;;22.52;1.70;102581.28;5053406;28;20032;-68
2022/01/11 00:47:32;;;;;;;1.00;0.90;;;;;;;22.43;1.57;102583.38;5053664;28;20131;-68
2022/01/11 00:49:57;;;;;;;0.93;0.93;;;;;;;22.54;1.63;102590.06;5073290;28;20028;-68
2022/01/11 00:52:23;;;;;;;1.17;1.08;;;;;;;22.49;1.65;102590.72;5075746;28;20383;-68
2022/01/11 00:54:48;;;;;;;1.00;0.90;;;;;;;22.50;1.52;102603.28;5077341;28;20382;-67
2022/01/11 00:57:14;;;;;;;1.08;1.08;;;;;;;22.47;1.65;102598.28;5076930;28;20029;-68
2022/01/11 00:59:39;;;;;;;0.90;0.90;;;;;;;22.50;1.71;102600.56;5077057;28;20036;-67
2022/01/11 01:02:05;;;;;;;0.80;0.80;;;;;;;22.53;1.70;102601.19;5076899;28;20047;-68
2022/01/11 01:04:30;;;;;;;0.95;0.80;;;;;;;22.42;1.64;102595.34;5077270;28;20025;-68
2022/01/11 01:06:55;;;;;;;0.80;0.80;;;;;;;22.44;1.60;102601.44;5077084;28;20020;-68
2022/01/11 01:09:22;;;;;;;1.20;1.10;;;;;;;22.51;1.52;102587.78;5076976;28;20036;-68
2022/01/11 01:11:47;;;;;;;1.10;1.00;;;;;;;22.47;1.64;102586.53;5076840;28;20119;-68
2022/01/11 01:14:13;;;;;;;0.95;0.93;;;;;;;22.46;1.62;102595.75;5076794;28;20436;-68
2022/01/11 01:16:38;;;;;;;1.10;1.00;;;;;;;22.43;1.62;102583.38;5076900;28;20032;-69
2022/01/11 01:19:03;;;;;;;0.80;0.80;;;;;;;22.50;1.63;102584.19;5076510;28;20541;-68
2022/01/11 01:21:36;;;;;;;0.80;0.80;;;;;;;22.43;1.59;102585.28;5075832;28;20110;-69
2022/01/11 01:24:02;;;;;;;0.65;0.65;;;;;;;22.44;1.67;102585.06;5076841;28;20021;-68
2022/01/11 01:26:27;;;;;;;1.70;1.25;;;;;;;22.45;1.63;102577.72;5076409;28;20055;-68
2022/01/11 01:28:53;;;;;;;1.17;1.05;;;;;;;22.45;1.63;102572.28;5076722;28;20017;-68
2022/01/11 01:31:19;;;;;;;1.20;1.10;;;;;;;22.45;1.59;102577.72;5076313;28;20028;-68
2022/01/11 01:33:45;;;;;;;1.23;0.93;;;;;;;22.43;1.64;102585.28;5075067;28;20035;-67
2022/01/11 01:36:11;;;;;;;1.25;1.15;;;;;;;22.35;1.67;102583.63;5076559;28;20478;-67
2022/01/11 01:38:37;;;;;;;1.00;0.90;;;;;;;22.40;1.53;102583.81;5076377;28;20031;-68
2022/01/11 01:41:12;;;;;;;1.00;0.90;;;;;;;22.43;1.52;102579.84;5075011;28;20020;-68
2022/01/11 01:43:37;;;;;;;1.60;1.20;;;;;;;22.41;1.51;102587.41;5075033;28;20092;-69
2022/01/11 01:46:03;;;;;;;1.13;1.02;;;;;;;22.36;1.78;102584.47;5076480;28;20032;-68
2022/01/11 01:48:29;;;;;;;1.45;1.23;;;;;;;22.45;1.56;102572.28;5070562;28;20029;-68
2022/01/11 01:50:55;;;;;;;1.27;1.17;;;;;;;22.40;1.54;102564.75;5057609;28;20084;-68
2022/01/11 01:53:20;;;;;;;1.00;0.90;;;;;;;22.42;1.51;102564.53;5055016;28;20048;-68
2022/01/11 01:55:46;;;;;;;1.15;1.00;;;;;;;22.41;1.52;102577.31;5055123;28;20059;-68
2022/01/11 01:58:12;;;;;;;1.10;1.00;;;;;;;22.38;1.51;102571.47;5056213;28;20036;-68
2022/01/11 02:00:51;;;;;;;1.20;1.10;;;;;;;22.43;1.56;102574.38;5056104;28;20024;-68
2022/01/11 02:03:17;;;;;;;1.42;1.05;;;;;;;22.45;1.58;102572.28;5054769;28;20021;-68
2022/01/11 02:05:43;;;;;;;1.10;1.00;;;;;;;22.39;1.58;102573.16;5056017;28;20032;-68
2022/01/11 02:08:08;;;;;;;1.00;0.90;;;;;;;22.40;1.52;102574.81;5055979;28;20018;-68
2022/01/11 02:10:34;;;;;;;1.20;1.10;;;;;;;22.41;1.47;102571.03;5055647;28;20029;-68
2022/01/11 02:13:00;;;;;;;1.23;1.02;;;;;;;22.40;1.49;102569.38;5055821;28;20051;-68
2022/01/11 02:15:26;;;;;;;1.17;1.08;;;;;;;22.39;1.53;102568.53;5055801;28;20460;-68
2022/01/11 02:17:52;;;;;;;1.00;0.95;;;;;;;22.36;1.53;102579.03;5055428;28;20472;-68
2022/01/11 02:20:17;;;;;;;1.10;1.00;;;;;;;22.36;1.56;102568.13;5055294;28;20036;-68
2022/01/11 02:22:42;;;;;;;1.52;1.15;;;;;;;22.35;1.56;102578.16;5054149;28;20040;-68
2022/01/11 02:25:08;;;;;;;0.88;0.88;;;;;;;22.40;1.44;102574.81;5055363;28;20024;-68
2022/01/11 02:27:34;;;;;;;1.00;0.90;;;;;;;22.39;1.61;102573.97;5056262;28;20029;-68
2022/01/11 02:29:59;;;;;;;1.10;1.00;;;;;;;22.43;1.57;102579.84;5055457;28;20029;-68
2022/01/11 02:32:26;;;;;;;1.20;1.00;;;;;;;22.43;1.56;102582.56;5055132;28;20407;-68
2022/01/11 02:34:51;;;;;;;0.98;0.90;;;;;;;22.37;1.47;102583.41;5055713;28;20036;-68
2022/01/11 02:37:17;;;;;;;0.70;0.70;;;;;;;22.37;1.39;102580.69;5055409;28;20033;-67
2022/01/11 02:39:45;;;;;;;1.05;0.95;;;;;;;22.45;1.45;102572.28;5055259;28;20051;-68
2022/01/11 02:42:10;;;;;;;1.08;1.00;;;;;;;22.40;1.45;102569.38;5054980;28;20040;-67
2022/01/11 02:44:36;;;;;;;0.95;0.90;;;;;;;22.37;1.50;102567.06;5054916;28;20036;-67
2022/01/11 02:47:01;;;;;;;1.08;0.98;;;;;;;22.37;1.64;102569.78;5055275;28;20025;-68
2022/01/11 02:49:27;;;;;;;1.15;0.95;;;;;;;22.37;1.51;102561.59;5069559;28;20025;-68
2022/01/11 02:51:53;;;;;;;1.27;1.02;;;;;;;22.40;1.44;102570.19;5074806;28;20031;-68
2022/01/11 02:54:19;;;;;;;1.30;1.10;;;;;;;22.35;1.51;102563.72;5075545;28;20141;-69
2022/01/11 02:56:44;;;;;;;0.93;0.82;;;;;;;22.40;1.30;102574.81;5075186;28;20028;-68
2022/01/11 02:59:09;;;;;;;1.13;1.00;;;;;;;22.41;1.32;102576.50;5075013;28;20070;-69
2022/01/11 03:01:35;;;;;;;1.02;0.95;;;;;;;22.40;1.47;102569.38;5074689;28;20375;-68
2022/01/11 03:04:00;;;;;;;1.05;0.90;;;;;;;22.33;1.47;102574.81;5074763;28;20027;-68
2022/01/11 03:06:26;;;;;;;1.15;1.05;;;;;;;22.34;1.40;102556.63;5074508;28;20025;-68
2022/01/11 03:08:51;;;;;;;0.80;0.73;;;;;;;22.39;1.41;102559.53;5074733;28;20025;-68
2022/01/11 03:11:18;;;;;;;1.20;1.10;;;;;;;22.37;1.50;102556.16;5073076;28;20520;-68
2022/01/11 03:13:44;;;;;;;1.20;1.10;;;;;;;22.35;1.40;102555.53;5074621;28;20024;-68
2022/01/11 03:16:13;;;;;;;1.15;1.00;;;;;;;22.33;1.53;102560.38;5074598;28;20370;-67
2022/01/11 03:18:38;;;;;;;1.02;0.90;;;;;;;22.43;1.45;102560.78;5074157;28;20043;-68
2022/01/11 03:21:04;;;;;;;1.25;1.00;;;;;;;22.45;1.41;102554.03;5074601;28;20040;-68
2022/01/11 03:23:29;;;;;;;1.15;0.90;;;;;;;22.34;1.54;102553.88;5074512;28;20407;-68
2022/01/11 03:25:55;;;;;;;1.00;0.88;;;;;;;22.43;1.37;102552.59;5074167;28;20536;-68
2022/01/11 03:28:21;;;;;;;1.00;0.90;;;;;;;22.39;1.33;102556.81;5073126;28;20058;-68
2022/01/11 03:30:47;;;;;;;1.10;1.00;;;;;;;22.35;1.36;102556.38;5074257;28;20025;-67
2022/01/11 03:33:12;;;;;;;1.08;0.93;;;;;;;22.35;1.44;102564.53;5074145;28;20031;-68
2022/01/11 03:35:38;;;;;;;1.23;1.08;;;;;;;22.35;1.38;102555.53;5074036;28;20031;-68
2022/01/11 03:38:04;;;;;;;1.00;0.90;;;;;;;22.36;1.33;102560.78;5072741;28;20483;-68
2022/01/11 03:40:29;;;;;;;0.95;0.85;;;;;;;22.40;1.33;102553.00;5074114;28;20024;-68
2022/01/11 03:42:56;;;;;;;0.80;0.80;;;;;;;22.39;1.36;102552.19;5072999;28;20029;-68
2022/01/11 03:45:22;;;;;;;0.77;0.77;;;;;;;22.36;1.43;102538.16;5074443;28;20071;-68
2022/01/11 03:47:48;;;;;;;1.10;1.00;;;;;;;22.37;1.32;102535.22;5074387;28;20467;-68
2022/01/11 03:50:13;;;;;;;0.85;0.80;;;;;;;22.41;1.33;102538.34;5038911;28;20040;-68
2022/01/11 03:52:39;;;;;;;0.73;0.73;;;;;;;22.38;1.36;102547.78;5033629;28;20030;-68
2022/01/11 03:55:10;;;;;;;1.00;0.90;;;;;;;22.37;1.30;102550.72;5038632;28;20482;-67
2022/01/11 03:57:36;;;;;;;0.80;0.80;;;;;;;22.37;1.34;102534.38;5040890;28;20037;-68
2022/01/11 04:00:05;;;;;;;1.00;0.90;;;;;;;22.33;1.48;102535.84;5042858;28;20025;-67
2022/01/11 04:02:30;;;;;;;0.65;0.65;;;;;;;22.29;1.46;102536.28;5047855;28;20048;-68
2022/01/11 04:04:57;;;;;;;1.35;0.93;;;;;;;22.28;1.34;102542.81;5045815;28;20147;-68
2022/01/11 04:07:25;;;;;;;1.10;1.00;;;;;;;22.34;1.36;102543.00;5045571;28;20041;-68
2022/01/11 04:09:51;;;;;;;0.82;0.82;;;;;;;22.39;1.40;102538.56;5042331;28;20026;-69
2022/01/11 04:12:16;;;;;;;0.70;0.70;;;;;;;22.39;1.45;102551.38;5038645;28;20033;-68
2022/01/11 04:14:42;;;;;;;1.00;0.77;;;;;;;22.40;1.43;102558.47;5034397;28;20460;-68
2022/01/11 04:17:07;;;;;;;0.70;0.70;;;;;;;22.52;1.39;102550.47;5033435;28;20026;-68
2022/01/11 04:19:33;;;;;;;0.80;0.80;;;;;;;22.54;1.34;102551.91;5033339;28;20045;-69
2022/01/11 04:21:58;;;;;;;1.15;0.75;;;;;;;22.60;1.30;102545.59;5032374;28;20033;-68
2022/01/11 04:24:24;;;;;;;0.70;0.70;;;;;;;22.60;1.37;102542.88;5033738;28;20051;-68
2022/01/11 04:26:49;;;;;;;0.75;0.75;;;;;;;22.66;1.33;102542.03;5033057;28;20025;-68
2022/01/11 04:29:15;;;;;;;0.70;0.63;;;;;;;22.65;1.27;102532.16;5033497;28;20040;-68
2022/01/11 04:31:40;;;;;;;0.70;0.70;;;;;;;22.75;1.39;102533.59;5033532;28;20022;-69
2022/01/11 04:34:06;;;;;;;0.80;0.68;;;;;;;22.74;1.29;102521.84;5033372;28;20040;-68
2022/01/11 04:36:33;;;;;;;1.63;0.90;;;;;;;22.74;1.36;102516.41;5033535;28;20032;-69
2022/01/11 04:38:59;;;;;;;1.05;0.95;;;;;;;22.76;1.19;102524.38;5033470;28;20066;-68
2022/01/11 04:41:24;;;;;;;0.60;0.60;;;;;;;22.79;1.30;102515.75;5033342;28;20076;-68
2022/01/11 04:43:49;;;;;;;0.70;0.70;;;;;;;22.84;1.30;102527.69;5033201;28;20472;-68
2022/01/11 04:46:18;;;;;;;1.08;0.70;;;;;;;22.83;1.36;102536.06;5034169;28;20038;-68
2022/01/11 04:48:46;;;;;;;0.88;0.80;;;;;;;22.85;1.32;102518.47;5047161;28;20029;-68
2022/01/11 04:51:12;;;;;;;0.80;0.77;;;;;;;22.88;1.31;102511.72;5073541;28;20109;-68
2022/01/11 04:53:37;;;;;;;0.70;0.70;;;;;;;22.90;1.27;102525.13;5073305;28;20028;-68
2022/01/11 04:56:03;;;;;;;0.70;0.68;;;;;;;22.84;1.32;102526.84;5073400;28;20044;-68
2022/01/11 04:58:28;;;;;;;0.55;0.55;;;;;;;22.88;1.43;102528.91;5074108;28;20466;-69
2022/01/11 05:00:54;;;;;;;0.85;0.85;;;;;;;22.94;1.45;102532.66;5071908;28;20032;-69
2022/01/11 05:03:19;;;;;;;1.02;0.90;;;;;;;22.98;1.22;102541.25;5073002;28;20475;-69
2022/01/11 05:05:46;;;;;;;0.77;0.70;;;;;;;22.96;1.22;102546.09;5073142;28;20034;-67
2022/01/11 05:08:12;;;;;;;0.70;0.70;;;;;;;22.97;1.44;102536.84;5071960;28;20024;-68
2022/01/11 05:10:42;;;;;;;0.73;0.73;;;;;;;22.94;1.44;102537.25;5071867;28;20028;-68
2022/01/11 05:13:10;;;;;;;0.77;0.77;;;;;;;22.99;1.29;102541.03;5073001;28;20403;-68
2022/01/11 05:15:35;;;;;;;0.73;0.73;;;;;;;23.01;1.25;102541.63;5072691;28;20033;-68
2022/01/11 05:18:01;;;;;;;0.80;0.80;;;;;;;23.00;1.11;102548.13;5072879;28;20052;-69
2022/01/11 05:20:26;;;;;;;0.93;0.85;;;;;;;23.05;1.38;102548.34;5073219;28;20044;-69
2022/01/11 05:22:51;;;;;;;0.70;0.70;;;;;;;23.08;1.36;102562.59;5072714;28;20070;-69
2022/01/11 05:25:17;;;;;;;0.65;0.60;;;;;;;23.02;1.26;102551.47;5073039;28;20042;-69
2022/01/11 05:27:43;;;;;;;0.65;0.65;;;;;;;23.04;1.42;102554.84;5072679;28;20103;-69
2022/01/11 05:30:09;;;;;;;0.77;0.68;;;;;;;23.03;1.38;102547.72;5072906;28;20104;-69
2022/01/11 05:32:35;;;;;;;1.67;1.05;;;;;;;23.06;1.32;102571.03;5073340;28;20028;-69
2022/01/11 05:35:03;;;;;;;0.80;0.80;;;;;;;23.01;1.43;102582.53;5072737;28;20028;-67
2022/01/11 05:37:28;;;;;;;0.80;0.80;;;;;;;23.05;1.76;102578.34;5071631;28;20031;-69
2022/01/11 05:39:53;;;;;;;1.05;0.90;;;;;;;23.02;1.64;102562.38;5075895;28;20020;-69
2022/01/11 05:42:19;;;;;;;1.42;0.95;;;;;;;23.08;1.50;102576.22;5076637;28;20036;-69
2022/01/11 05:44:44;;;;;;;0.90;0.90;;;;;;;23.12;1.38;102572.84;5076370;28;20020;-68
2022/01/11 05:47:10;;;;;;;1.50;0.93;;;;;;;23.12;1.38;102583.75;5075318;28;20025;-68
2022/01/11 05:49:35;;;;;;;0.70;0.70;;;;;;;23.16;1.49;102573.25;5064207;28;20075;-69
2022/01/11 05:52:01;;;;;;;0.80;0.80;;;;;;;23.15;1.79;102587.97;5056771;28;20044;-69
2022/01/11 05:54:26;;;;;;;0.63;0.63;;;;;;;23.14;1.55;102580.81;5056435;28;20434;-69
2022/01/11 05:56:51;;;;;;;0.93;0.82;;;;;;;23.17;1.67;102586.69;5056648;28;20487;-69
2022/01/11 05:59:17;;;;;;;0.80;0.80;;;;;;;23.19;1.57;102591.91;5057351;28;20403;-69
2022/01/11 06:01:42;;;;;;;1.20;1.00;;;;;;;23.21;1.64;102592.53;5055144;28;20533;-68
2022/01/11 06:04:08;;;;;;;1.00;0.90;;;;;;;23.20;1.69;102586.25;5055071;28;20064;-68
2022/01/11 06:06:33;;;;;;;0.80;0.80;;;;;;;23.20;1.50;102580.78;5055952;28;20025;-69
2022/01/11 06:09:01;;;;;;;1.15;1.00;;;;;;;23.25;1.81;102583.69;5055387;28;20024;-68
2022/01/11 06:11:26;;;;;;;1.02;0.95;;;;;;;23.27;1.69;102593.53;5056156;28;20037;-69
2022/01/11 06:13:52;;;;;;;1.05;0.95;;;;;;;23.19;1.82;102600.94;5055900;28;20429;-69
2022/01/11 06:16:17;;;;;;;1.30;1.20;;;;;;;23.25;1.64;102594.59;5055075;28;20031;-68
2022/01/11 06:18:45;;;;;;;1.35;1.20;;;;;;;23.21;1.63;102581.63;5053742;28;20068;-68
2022/01/11 06:21:10;;;;;;;1.30;1.20;;;;;;;23.24;1.84;102592.09;5054151;28;20037;-68
2022/01/11 06:23:36;;;;;;;1.35;1.10;;;;;;;23.34;1.77;102588.91;5055095;28;20100;-68
2022/01/11 06:26:01;;;;;;;1.30;1.20;;;;;;;23.18;1.82;102587.50;5054864;28;20024;-67
2022/01/11 06:28:27;;;;;;;1.25;1.15;;;;;;;23.18;1.84;102601.13;5054809;28;20025;-69
2022/01/11 06:30:52;;;;;;;1.52;1.40;;;;;;;23.21;1.97;102604.25;5054784;28;20028;-69
2022/01/11 06:33:17;;;;;;;1.45;1.35;;;;;;;23.19;2.03;102603.66;5054997;28;20021;-68
2022/01/11 06:35:43;;;;;;;1.50;1.35;;;;;;;23.30;1.92;102612.19;5055182;28;20075;-68
2022/01/11 06:38:08;;;;;;;1.50;1.40;;;;;;;23.31;1.85;102611.97;5055603;28;20067;-69
2022/01/11 06:40:34;;;;;;;2.58;1.60;;;;;;;23.24;2.01;102624.81;5054893;28;20079;-67
2022/01/11 06:42:59;;;;;;;1.50;1.40;;;;;;;23.27;2.01;102623.53;5054943;28;20172;-69
2022/01/11 06:45:25;;;;;;;1.80;1.50;;;;;;;23.35;1.91;102626.88;5054600;28;20424;-68
2022/01/11 06:47:51;;;;;;;1.70;1.50;;;;;;;23.34;2.04;102635.28;5055247;28;20025;-68
2022/01/11 06:50:17;;;;;;;3.00;1.50;;;;;;;23.14;2.04;102630.75;5070722;28;20088;-68
2022/01/11 06:52:42;;;;;;;1.58;1.40;;;;;;;23.33;1.96;102639.06;5074680;28;20036;-67
2022/01/11 06:55:09;;;;;;;2.55;1.55;;;;;;;23.19;2.05;102628.19;5074451;28;20024;-68
2022/01/11 06:57:34;;;;;;;1.63;1.40;;;;;;;23.28;2.20;102644.31;5074571;28;20471;-69
2022/01/11 06:59:59;;;;;;;1.85;1.50;;;;;;;23.20;2.04;102637.25;5074565;28;20027;-68
2022/01/11 07:02:25;;;;;;;3.20;1.95;;;;;;;23.31;2.05;102641.16;5075523;28;20463;-70
2022/01/11 07:04:50;;;;;;;1.98;1.60;;;;;;;23.42;2.15;102643.19;5074761;28;20421;-67
2022/01/11 07:07:16;;;;;;;2.63;1.55;;;;;;;23.42;2.07;102633.13;5073024;28;20509;-68
2022/01/11 07:09:41;;;;;;;2.10;1.90;;;;;;;23.39;2.10;102635.47;5074783;28;20028;-68
2022/01/11 07:12:07;;;;;;;2.15;1.70;;;;;;;23.44;2.07;102628.28;5073196;28;20020;-69
2022/01/11 07:14:32;;;;;;;2.65;1.90;;;;;;;23.32;2.15;102635.50;5074370;28;20024;-68
2022/01/11 07:16:58;;;;;;;1.95;1.50;;;;;;;23.34;2.39;102636.09;5072717;28;20360;-68
2022/01/11 07:19:24;;;;;;;2.10;1.90;;;;;;;23.34;2.32;102641.56;5073673;28;20059;-68
2022/01/11 07:21:49;;;;;;;2.45;1.65;;;;;;;23.29;2.60;102637.81;5074210;28;20108;-68
2022/01/11 07:24:15;;;;;;;2.50;2.17;;;;;;;23.33;2.33;102645.34;5074093;28;20025;-69
2022/01/11 07:26:40;;;;;;;2.70;2.20;;;;;;;23.27;2.54;102640.78;5074196;28;20043;-69
2022/01/11 07:29:07;;;;;;;2.47;2.17;;;;;;;23.44;2.46;102636.47;5073910;28;20451;-69
2022/01/11 07:31:33;;;;;;;2.72;2.20;;;;;;;23.46;2.29;102646.31;5073606;28;20144;-68
2022/01/11 07:33:58;;;;;;;3.10;2.28;;;;;;;23.50;2.27;102636.66;5073727;28;20112;-69
2022/01/11 07:36:24;;;;;;;2.97;2.40;;;;;;;23.38;2.28;102648.25;5073694;28;20047;-69
2022/01/11 07:38:51;;;;;;;2.22;2.03;;;;;;;23.32;2.49;102646.41;5073608;28;20112;-69
2022/01/11 07:41:17;;;;;;;3.38;2.40;;;;;;;23.30;2.46;102647.66;5073639;28;20032;-69
2022/01/11 07:43:42;;;;;;;2.78;2.20;;;;;;;23.35;2.07;102647.84;5073776;28;20073;-68
2022/01/11 07:46:08;;;;;;;2.20;2.00;;;;;;;23.41;2.41;102661.44;5073734;28;20033;-67
2022/01/11 07:48:33;;;;;;;2.30;2.10;;;;;;;23.32;2.28;102665.50;5072644;28;20414;-67
2022/01/11 07:50:58;;;;;;;2.30;2.10;;;;;;;23.38;2.16;102658.31;5053558;28;20041;-68
2022/01/11 07:53:24;;;;;;;5.78;2.38;;;;;;;23.44;2.40;102652.84;5052845;28;20033;-68
2022/01/11 07:55:49;;;;;;;2.15;1.90;;;;;;;23.36;2.19;102639.44;5052254;28;20079;-69
2022/01/11 07:58:15;;;;;;;2.67;1.90;;;;;;;23.43;2.13;102626.59;5054126;28;20017;-67
2022/01/11 08:00:40;;;;;;;2.80;2.15;;;;;;;23.45;2.54;102629.09;5052892;28;20021;-67
2022/01/11 08:03:05;;;;;;;2.13;1.92;;;;;;;23.51;2.53;102619.19;5053258;28;20025;-68
2022/01/11 08:05:31;;;;;;;17.15;11.02;;;;;;;23.42;2.53;102627.66;5054172;28;20025;-68
2022/01/11 08:07:56;;;;;;;15.52;11.15;;;;;;;23.59;2.48;102640.78;5053217;28;20025;-67
2022/01/11 08:10:22;;;;;;;13.13;7.97;;;;;;;23.56;2.14;102638.47;5053061;28;20448;-68
2022/01/11 08:12:47;;;;;;;11.65;8.02;;;;;;;23.48;2.14;102636.03;5053530;28;20024;-69
2022/01/11 08:15:12;;;;;;;11.95;7.88;;;;;;;23.44;2.19;102646.56;5052677;28;20028;-67
2022/01/11 08:17:39;;;;;;;13.10;7.78;;;;;;;23.44;2.16;102650.09;5053285;28;20052;-69
2022/01/11 08:20:05;;;;;;;10.32;7.00;;;;;;;23.59;2.22;102643.50;5053060;28;20025;-68
2022/01/11 08:22:30;;;;;;;9.77;6.45;;;;;;;23.54;2.32;102644.19;5053062;28;20017;-69
2022/01/11 08:24:56;;;;;;;7.97;5.55;;;;;;;23.58;2.23;102642.66;5053533;28;20035;-68
2022/01/11 08:27:22;;;;;;;7.35;5.30;;;;;;;23.47;2.27;102639.81;5053414;28;20021;-69
2022/01/11 08:29:49;;;;;;;6.45;4.45;;;;;;;23.59;2.39;102640.78;5054274;28;20023;-69
2022/01/11 08:32:14;;;;;;;7.07;4.13;;;;;;;23.54;2.21;102621.50;5053155;28;20021;-68
2022/01/11 08:34:40;;;;;;;4.60;3.35;;;;;;;23.47;2.38;102645.25;5053741;28;20021;-68
2022/01/11 08:37:05;;;;;;;4.70;3.40;;;;;;;23.51;2.16;102641.03;5052687;28;20472;-68
2022/01/11 08:39:31;;;;;;;4.00;3.45;;;;;;;23.60;2.36;102640.56;5053046;28;20021;-68
2022/01/11 08:41:56;;;;;;;3.97;3.00;;;;;;;23.70;2.15;102645.53;5053034;28;20339;-68
2022/01/11 08:44:24;;;;;;;3.65;2.83;;;;;;;23.56;2.22;102639.34;5052615;28;20108;-68
2022/01/11 08:46:49;;;;;;;3.38;2.30;;;;;;;23.43;2.20;102642.13;5052555;28;20505;-69
2022/01/11 08:49:15;;;;;;;2.63;2.30;;;;;;;23.58;2.27;102636.38;5058161;28;20047;-67
2022/01/11 08:51:40;;;;;;;2.28;2.03;;;;;;;23.67;2.19;102624.13;5072951;28;20024;-68
2022/01/11 08:54:06;;;;;;;3.00;2.33;;;;;;;23.73;2.27;102626.00;5072651;28;20036;-68
2022/01/11 08:56:32;;;;;;;2.45;2.20;;;;;;;23.68;2.52;102625.81;5071668;28;20328;-69
2022/01/11 08:58:57;;;;;;;2.72;2.38;;;;;;;23.74;2.34;102630.38;5073563;28;20112;-68
2022/01/11 09:01:25;;;;;;;2.53;2.00;;;;;;;23.74;2.64;102619.44;5072622;28;20024;-69
2022/01/11 09:03:50;;;;;;;2.42;2.10;;;;;;;23.74;2.35;102619.44;5072706;28;20047;-69
2022/01/11 09:06:16;;;;;;;2.55;1.98;;;;;;;23.82;2.50;102632.03;5073284;28;20463;-69
2022/01/11 09:08:41;;;;;;;2.17;1.90;;;;;;;23.65;2.65;102626.25;5073134;28;20383;-68
2022/01/11 09:11:07;;;;;;;2.17;1.98;;;;;;;23.69;2.74;102629.38;5073121;28;20028;-67
2022/01/11 09:13:33;;;;;;;1.70;1.60;;;;;;;23.69;2.97;102638.38;5076984;28;20037;-68
2022/01/11 09:15:58;;;;;;;2.25;1.83;;;;;;;23.77;2.65;102621.75;5076790;28;20025;-68
2022/01/11 09:18:24;;;;;;;1.90;1.63;;;;;;;23.68;2.75;102624.97;5076857;28;20047;-69
2022/01/11 09:20:49;;;;;;;2.97;1.58;;;;;;;23.71;2.81;102613.59;5077071;28;20398;-68
2022/01/11 09:23:14;;;;;;;2.88;1.98;;;;;;;23.62;2.75;102621.22;5077188;28;20463;-68
2022/01/11 09:25:40;;;;;;;2.08;1.55;;;;;;;23.66;2.72;102622.44;5076778;28;20459;-68
2022/01/11 09:28:06;;;;;;;1.92;1.40;;;;;;;23.69;2.77;102630.19;5077598;28;20032;-67
2022/01/11 09:30:31;;;;;;;1.85;1.55;;;;;;;23.75;2.73;102623.88;5076196;28;20035;-67
2022/01/11 09:32:56;;;;;;;2.10;1.63;;;;;;;23.71;2.60;102625.34;5075155;28;20020;-67
2022/01/11 09:35:22;;;;;;;1.75;1.33;;;;;;;23.69;2.49;102611.09;5077022;28;20161;-69
2022/01/11 09:37:49;;;;;;;1.55;1.40;;;;;;;23.61;2.66;102612.22;5077113;28;20524;-70
2022/01/11 09:40:14;;;;;;;2.05;1.30;;;;;;;23.68;2.55;102616.78;5075588;28;20024;-70
2022/01/11 09:42:40;;;;;;;1.95;1.52;;;;;;;23.74;2.75;102611.25;5077876;28;20375;-69
2022/01/11 09:45:06;;;;;;;2.38;1.50;;;;;;;23.76;2.71;102608.31;5076705;28;20126;-67
2022/01/11 09:47:35;;;;;;;1.55;1.30;;;;;;;23.75;2.59;102610.22;5076191;28;20463;-68
2022/01/11 09:50:00;;;;;;;1.65;1.20;;;;;;;23.75;2.72;102606.63;5065412;28;20403;-67
2022/01/11 09:52:26;;;;;;;2.75;1.23;;;;;;;23.77;2.77;102610.00;5055310;28;20029;-68
2022/01/11 09:54:51;;;;;;;2.45;1.40;;;;;;;23.68;2.67;102620.34;5056863;28;20021;-68
2022/01/11 09:57:17;;;;;;;1.38;1.15;;;;;;;23.67;2.61;102607.75;5056946;28;20029;-68
2022/01/11 09:59:43;;;;;;;1.30;1.20;;;;;;;23.74;2.74;102624.09;5056588;28;20052;-68
2022/01/11 10:02:08;;;;;;;2.05;1.40;;;;;;;23.85;2.61;102614.38;5055391;28;20021;-67
2022/01/11 10:04:35;;;;;;;1.33;1.23;;;;;;;23.69;2.70;102615.72;5055395;28;20400;-68
2022/01/11 10:07:02;;;;;;;1.30;1.13;;;;;;;23.68;2.72;102620.34;5055265;28;20021;-68
2022/01/11 10:09:29;;;;;;;1.30;1.20;;;;;;;23.77;2.79;102624.47;5055112;28;20036;-68
2022/01/11 10:11:57;;;;;;;1.20;1.10;;;;;;;23.93;2.80;102614.09;5055201;28;20032;-68
2022/01/11 10:14:22;;;;;;;1.38;1.27;;;;;;;23.85;2.91;102625.28;5055185;28;20041;-68
2022/01/11 10:16:48;;;;;;;1.58;1.20;;;;;;;23.86;3.00;102621.50;5055204;28;20091;-68
2022/01/11 10:19:26;;;;;;;2.15;1.42;;;;;;;23.90;3.05;102618.09;5054944;28;20037;-68
2022/01/11 10:21:51;;;;;;;2.75;2.00;;;;;;;23.88;3.02;102612.03;5054810;28;20037;-68
2022/01/11 10:24:21;;;;;;;4.03;2.08;;;;;;;23.99;2.87;102616.78;5054046;28;20161;-67
2022/01/11 10:26:46;;;;;;;3.30;2.10;;;;;;;23.81;3.31;102603.06;5054760;28;20029;-68
2022/01/11 10:29:26;;;;;;;2.55;1.95;;;;;;;24.04;3.55;102598.84;5055084;28;20028;-66
2022/01/11 10:31:52;;;;;;;2.30;1.83;;;;;;;23.99;3.22;102600.38;5056134;28;20035;-69
2022/01/11 10:34:25;;;;;;;1.77;1.58;;;;;;;24.06;3.44;102588.53;5055224;28;20392;-68
2022/01/11 10:36:50;;;;;;;3.35;1.95;;;;;;;24.05;3.43;102597.81;5055647;28;20036;-67
2022/01/11 10:39:29;;;;;;;1.63;1.52;;;;;;;24.06;3.30;102597.59;5055087;28;20040;-68
2022/01/11 10:41:55;;;;;;;1.83;1.55;;;;;;;23.92;3.61;102590.56;5055230;28;20084;-69
2022/01/11 10:44:52;;;;;;;2.53;1.75;;;;;;;24.22;3.30;102578.94;5054942;28;20106;-68
2022/01/11 10:47:31;;;;;;;2.10;1.70;;;;;;;24.17;3.20;102588.63;5054744;28;20071;-67
2022/01/11 10:50:03;;;;;;;1.92;1.73;;;;;;;24.17;3.30;102585.91;5061962;28;20032;-66
2022/01/11 10:52:32;;;;;;;2.63;1.95;;;;;;;24.05;3.41;102571.31;5074310;28;20455;-66
2022/01/11 10:54:58;;;;;;;3.33;1.75;;;;;;;24.17;3.67;102577.72;5074562;28;20112;-66
2022/01/11 10:57:28;;;;;;;2.40;1.75;;;;;;;23.99;3.83;102577.69;5073934;28;20502;-65
2022/01/11 11:00:17;;;;;;;2.47;2.03;;;;;;;24.16;3.53;102575.19;5074003;28;20059;-66
2022/01/11 11:02:45;;;;;;;2.30;1.80;;;;;;;24.01;3.43;102578.31;5074223;28;20533;-66
2022/01/11 11:05:18;;;;;;;3.50;1.88;;;;;;;24.01;3.50;102561.94;5072985;28;20508;-66
2022/01/11 11:07:44;;;;;;;2.63;2.05;;;;;;;24.14;3.42;102558.22;5073429;28;20047;-66
2022/01/11 11:10:09;;;;;;;2.13;1.70;;;;;;;24.22;3.50;102559.81;5072938;28;20032;-68
2022/01/11 11:12:35;;;;;;;2.85;1.98;;;;;;;24.22;3.23;102555.19;5074491;28;20031;-68
2022/01/11 11:15:00;;;;;;;2.65;2.10;;;;;;;24.16;3.55;102546.00;5074036;28;20055;-68
2022/01/11 11:17:34;;;;;;;2.15;1.95;;;;;;;24.13;3.18;102546.47;5073637;28;20119;-67
2022/01/11 11:20:04;;;;;;;2.33;2.10;;;;;;;24.02;3.41;102541.72;5073700;28;20020;-68
2022/01/11 11:22:29;;;;;;;3.97;1.60;;;;;;;24.15;3.43;102533.41;5073908;28;20043;-67
2022/01/11 11:24:55;;;;;;;2.17;1.98;;;;;;;24.10;3.67;102540.63;5073907;28;20021;-67
2022/01/11 11:27:22;;;;;;;3.08;2.42;;;;;;;24.07;3.60;102541.06;5073867;28;20476;-67
2022/01/11 11:29:48;;;;;;;2.78;2.25;;;;;;;24.28;3.57;102531.56;5073612;28;20038;-65
2022/01/11 11:32:18;;;;;;;2.70;2.20;;;;;;;24.25;3.62;102542.97;5073791;28;20074;-68
2022/01/11 11:34:50;;;;;;;6.13;2.92;;;;;;;24.23;3.99;102534.16;5074176;28;20027;-67